Fort Bridger, Wyoming
Current Conditions -  °F | °C
As of 2:35 PM on Wednesday 26 Nov 2014 (Local Time) from KFBR Reporting Station
Clear Clear  
Wind Chill: 39°   Ceiling: Unl
Heat Index: 47°   Visibility: 10mi
Dew Point: 31°   Wind: 28mph
Humidity: 52%   Direction: 250°WSW
Pressure: 30.37"   Gusts: 32mph
Location:  41.32°N, 110.39°W
Report Text: KFBR 262135Z AUTO 25024G28KT 10SM CLR 09/M01 A3037 RMK AO2 T00861007
Loading
Personal Weather Stations






























Interactive Weather Map New forecast layout! Learn more

10-Day Weather Forecast

Advertisements
Track Severe Weather on mobile